createdAt,value
2018-02-17T00:01:28.759Z,85.13
2018-02-17T00:03:58.925Z,86.64
2018-02-17T00:06:28.094Z,86.79
2018-02-17T00:08:57.241Z,86.50
2018-02-17T00:11:26.374Z,84.00
2018-02-17T00:13:55.278Z,85.17
2018-02-17T00:16:24.441Z,85.38
2018-02-17T00:18:53.887Z,86.45
2018-02-17T00:21:23.136Z,86.03
2018-02-17T00:23:52.375Z,86.17
2018-02-17T00:26:21.801Z,86.18
2018-02-17T00:28:51.080Z,85.36
2018-02-17T00:31:20.417Z,85.27
2018-02-17T00:33:50.046Z,85.67
2018-02-17T00:36:19.721Z,85.88
2018-02-17T00:38:49.226Z,86.16
2018-02-17T00:41:18.446Z,85.35
2018-02-17T00:43:47.828Z,84.66
2018-02-17T00:46:16.893Z,86.01
2018-02-17T00:48:46.110Z,85.31
2018-02-17T00:51:15.533Z,85.67
2018-02-17T00:53:44.592Z,86.88
2018-02-17T00:56:13.512Z,86.60
2018-02-17T00:58:42.994Z,85.27
2018-02-17T01:01:12.965Z,85.16
2018-02-17T01:03:42.352Z,85.89
2018-02-17T01:06:11.668Z,86.51
2018-02-17T01:08:40.842Z,87.19
2018-02-17T01:11:09.982Z,87.12
2018-02-17T01:13:39.832Z,87.06
2018-02-17T01:16:09.059Z,87.60
2018-02-17T01:18:38.199Z,88.22
2018-02-17T01:21:07.867Z,87.74
2018-02-17T01:23:36.974Z,87.97
2018-02-17T01:26:06.577Z,88.08
2018-02-17T01:28:35.529Z,89.13
2018-02-17T01:31:04.737Z,89.66
2018-02-17T01:33:33.871Z,89.90
2018-02-17T01:36:03.375Z,89.46
2018-02-17T01:38:32.865Z,89.65
2018-02-17T01:41:01.718Z,89.66
2018-02-17T01:43:30.797Z,88.27
2018-02-17T01:45:59.873Z,89.01
2018-02-17T01:48:29.138Z,89.14
2018-02-17T01:50:58.514Z,87.46
2018-02-17T01:53:27.596Z,88.92
2018-02-17T01:55:56.690Z,90.25
2018-02-17T01:58:25.994Z,91.45
2018-02-17T02:00:55.115Z,92.01
2018-02-17T02:03:23.977Z,92.30
2018-02-17T02:05:53.250Z,92.43
2018-02-17T02:08:22.551Z,92.29
2018-02-17T02:10:51.832Z,92.81
2018-02-17T02:13:21.243Z,93.06
2018-02-17T02:15:50.424Z,93.32
2018-02-17T02:18:19.587Z,93.31
2018-02-17T02:20:48.856Z,94.02
2018-02-17T02:23:18.185Z,93.97
2018-02-17T02:25:47.408Z,93.84
2018-02-17T02:28:16.723Z,93.49
2018-02-17T02:30:45.818Z,93.64
2018-02-17T02:33:15.151Z,93.70
2018-02-17T02:35:44.555Z,93.99
2018-02-17T02:38:13.990Z,93.66
2018-02-17T02:40:43.367Z,94.15
2018-02-17T02:43:12.632Z,93.07
2018-02-17T02:45:41.648Z,93.21
2018-02-17T02:48:11.098Z,92.60
2018-02-17T02:50:40.541Z,92.68
2018-02-17T02:53:10.082Z,92.45
2018-02-17T02:55:39.165Z,92.33
2018-02-17T02:58:08.457Z,91.62
2018-02-17T03:00:37.760Z,92.40
2018-02-17T03:03:07.062Z,91.44
2018-02-17T03:05:36.169Z,90.98
2018-02-17T03:08:05.655Z,91.20
2018-02-17T03:10:35.137Z,91.61
2018-02-17T03:13:04.502Z,92.04
2018-02-17T03:15:33.757Z,92.14
2018-02-17T03:18:02.902Z,92.33
2018-02-17T03:20:32.278Z,92.14
2018-02-17T03:23:02.077Z,91.98
2018-02-17T03:25:31.825Z,92.00
2018-02-17T03:28:00.945Z,92.49
2018-02-17T03:30:30.207Z,92.66
2018-02-17T03:32:59.589Z,92.46
2018-02-17T03:35:30.801Z,92.02
2018-02-17T03:38:00.723Z,91.88
2018-02-17T03:40:29.649Z,90.01
2018-02-17T03:42:58.621Z,90.57
2018-02-17T03:45:27.818Z,90.95
2018-02-17T03:47:56.964Z,92.04
2018-02-17T03:50:26.079Z,91.13
2018-02-17T03:52:55.081Z,90.81
2018-02-17T03:55:24.111Z,90.30
2018-02-17T03:57:53.232Z,90.71
2018-02-17T04:00:22.921Z,91.10
2018-02-17T04:02:52.278Z,91.35
2018-02-17T04:05:21.621Z,91.97
2018-02-17T04:07:50.665Z,92.18
2018-02-17T04:10:19.928Z,92.54
2018-02-17T04:12:49.024Z,91.82
2018-02-17T04:15:18.315Z,92.50
2018-02-17T04:17:47.509Z,92.98
2018-02-17T04:20:16.844Z,93.90
2018-02-17T04:22:46.195Z,93.69
2018-02-17T04:25:15.443Z,94.84
2018-02-17T04:27:44.880Z,94.38
2018-02-17T04:30:14.202Z,95.38
2018-02-17T04:32:43.241Z,95.67
2018-02-17T04:35:12.609Z,96.15
2018-02-17T04:37:41.998Z,96.09
2018-02-17T04:40:21.490Z,95.96
2018-02-17T04:42:51.460Z,96.69
2018-02-17T04:45:21.390Z,96.32
2018-02-17T04:50:58.767Z,96.86
2018-02-17T04:53:28.105Z,97.10
2018-02-17T04:59:16.262Z,97.62
2018-02-17T05:01:47.603Z,97.42
2018-02-17T05:04:19.590Z,97.58
2018-02-17T05:06:51.251Z,97.51
2018-02-17T05:09:20.346Z,97.34
2018-02-17T05:11:49.562Z,97.56
2018-02-17T05:14:19.213Z,98.04
2018-02-17T05:16:51.270Z,98.25
2018-02-17T05:22:39.032Z,98.24
2018-02-17T05:25:11.188Z,98.17
2018-02-17T05:27:41.997Z,98.65
2018-02-17T05:30:12.417Z,99.06
2018-02-17T05:32:44.397Z,98.70
2018-02-17T05:35:14.754Z,99.18
2018-02-17T05:37:44.155Z,99.03
2018-02-17T05:40:25.123Z,98.94
2018-02-17T05:42:54.757Z,98.63
2018-02-17T05:45:24.156Z,98.46
2018-02-17T05:47:58.869Z,98.57
2018-02-17T05:50:28.577Z,98.58
2018-02-17T05:52:58.172Z,98.16
2018-02-17T05:55:27.700Z,98.69
2018-02-17T05:57:56.847Z,98.97
2018-02-17T06:00:26.190Z,98.57
2018-02-17T06:02:55.730Z,99.02
2018-02-17T06:05:24.986Z,99.20
2018-02-17T06:07:54.392Z,98.80
2018-02-17T06:10:23.421Z,99.21
2018-02-17T06:12:52.590Z,98.53
2018-02-17T06:15:22.001Z,98.71
2018-02-17T06:17:51.157Z,98.77
2018-02-17T06:20:20.198Z,98.37
2018-02-17T06:22:49.405Z,98.93
2018-02-17T06:25:18.620Z,98.86
2018-02-17T06:27:47.961Z,99.08
2018-02-17T06:30:17.377Z,98.56
2018-02-17T06:32:46.661Z,97.97
2018-02-17T06:35:16.081Z,97.73
2018-02-17T06:37:45.602Z,97.72
2018-02-17T06:40:14.964Z,98.01
2018-02-17T06:42:43.920Z,97.18
2018-02-17T06:45:13.194Z,96.82
2018-02-17T06:47:42.282Z,96.21
2018-02-17T06:50:11.558Z,96.28
2018-02-17T06:52:40.979Z,95.90
2018-02-17T06:55:10.373Z,95.31
2018-02-17T06:57:39.263Z,95.85
2018-02-17T07:00:08.331Z,96.25
2018-02-17T07:02:37.435Z,95.57
2018-02-17T07:05:06.684Z,95.64
2018-02-17T07:07:35.645Z,95.15
2018-02-17T07:10:05.009Z,93.62
2018-02-17T07:12:34.300Z,93.60
2018-02-17T07:15:03.218Z,93.01
2018-02-17T07:17:32.304Z,91.80
2018-02-17T07:20:01.557Z,92.68
2018-02-17T07:22:30.630Z,92.44
2018-02-17T07:24:59.938Z,93.00
2018-02-17T07:27:29.059Z,92.42
2018-02-17T07:29:57.988Z,92.38
2018-02-17T07:32:26.956Z,92.91
2018-02-17T07:34:55.998Z,92.21
2018-02-17T07:37:25.022Z,91.52
2018-02-17T07:39:54.273Z,91.61
2018-02-17T07:42:23.479Z,90.82
2018-02-17T07:44:52.813Z,90.76
2018-02-17T07:47:21.952Z,91.20
2018-02-17T07:49:51.207Z,89.18
2018-02-17T07:52:20.249Z,91.57
2018-02-17T07:54:49.266Z,91.84
2018-02-17T07:57:18.286Z,91.78
2018-02-17T07:59:47.381Z,90.32
2018-02-17T08:02:16.735Z,89.22
2018-02-17T08:04:45.700Z,89.16
2018-02-17T08:07:14.772Z,89.89
2018-02-17T08:09:44.145Z,89.17
2018-02-17T08:12:13.145Z,90.33
2018-02-17T08:14:42.480Z,89.33
2018-02-17T08:17:11.454Z,88.26
2018-02-17T08:19:40.512Z,88.18
2018-02-17T08:22:09.849Z,87.49
2018-02-17T08:24:38.993Z,87.52
2018-02-17T08:27:08.066Z,86.75
2018-02-17T08:29:37.381Z,85.38
2018-02-17T08:32:06.373Z,84.48
2018-02-17T08:34:35.377Z,83.62
2018-02-17T08:37:04.499Z,83.23
2018-02-17T08:39:33.933Z,82.97
2018-02-17T08:42:03.298Z,81.83
2018-02-17T08:44:32.481Z,80.86
2018-02-17T08:47:01.669Z,81.64
2018-02-17T08:49:30.943Z,80.59
2018-02-17T08:51:59.970Z,78.39
2018-02-17T08:54:29.094Z,77.13
2018-02-17T08:56:58.126Z,75.58
2018-02-17T08:59:27.275Z,73.15
2018-02-17T09:01:56.277Z,71.50
2018-02-17T09:04:25.342Z,71.64
2018-02-17T09:06:54.357Z,71.71
2018-02-17T09:09:23.529Z,71.27
2018-02-17T09:11:53.027Z,71.06
2018-02-17T09:14:22.286Z,70.75
2018-02-17T09:16:51.430Z,68.44
2018-02-17T09:19:20.671Z,70.58
2018-02-17T09:21:49.612Z,69.76
2018-02-17T09:24:19.554Z,70.09
2018-02-17T09:26:48.916Z,68.58
2018-02-17T09:29:18.123Z,68.75
2018-02-17T09:31:47.233Z,68.49
2018-02-17T09:34:16.462Z,67.26
2018-02-17T09:36:46.011Z,68.72
2018-02-17T09:39:15.549Z,66.11
2018-02-17T09:41:44.911Z,64.99
2018-02-17T09:44:14.128Z,65.11
2018-02-17T09:46:43.514Z,64.30
2018-02-17T09:49:12.789Z,61.74
2018-02-17T09:51:42.002Z,61.56
2018-02-17T09:54:11.406Z,60.82
2018-02-17T09:56:40.607Z,58.77
2018-02-17T09:59:09.813Z,59.81
2018-02-17T10:01:39.187Z,59.03
2018-02-17T10:04:08.532Z,58.56
2018-02-17T10:06:38.533Z,58.94
2018-02-17T10:09:07.748Z,58.45
2018-02-17T10:11:37.174Z,56.73
2018-02-17T10:14:06.444Z,56.84
2018-02-17T10:16:35.737Z,56.56
2018-02-17T10:19:05.248Z,55.34
2018-02-17T10:21:34.646Z,56.60
2018-02-17T10:24:03.814Z,55.89
2018-02-17T10:26:33.253Z,54.37
2018-02-17T10:29:02.519Z,55.08
2018-02-17T10:31:31.837Z,53.80
2018-02-17T10:34:01.186Z,53.82
2018-02-17T10:36:30.630Z,54.42
2018-02-17T10:38:59.798Z,52.85
2018-02-17T10:41:28.982Z,53.30
2018-02-17T10:43:58.256Z,52.33
2018-02-17T10:46:27.506Z,52.68
2018-02-17T10:48:56.929Z,52.17
2018-02-17T10:51:25.994Z,50.29
2018-02-17T10:53:55.664Z,50.72
2018-02-17T10:56:24.793Z,51.86
2018-02-17T10:58:53.956Z,49.82
2018-02-17T11:01:23.477Z,50.10
2018-02-17T11:03:53.075Z,49.60
2018-02-17T11:06:22.122Z,49.02
2018-02-17T11:08:51.299Z,51.23
2018-02-17T11:11:20.561Z,51.98
2018-02-17T11:13:49.651Z,50.83
2018-02-17T11:16:18.853Z,50.25
2018-02-17T11:18:48.363Z,50.78
2018-02-17T11:21:17.454Z,49.59
2018-02-17T11:23:46.814Z,53.24
2018-02-17T11:26:15.893Z,52.70
2018-02-17T11:28:45.097Z,49.81
2018-02-17T11:31:14.628Z,50.59
2018-02-17T11:33:43.797Z,51.08
2018-02-17T11:36:13.335Z,50.53
2018-02-17T11:38:42.502Z,50.10
2018-02-17T11:41:11.797Z,51.73
2018-02-17T11:43:41.034Z,50.83
2018-02-17T11:46:10.587Z,51.03
2018-02-17T11:48:40.800Z,50.37
2018-02-17T11:51:10.412Z,49.59
2018-02-17T11:53:39.696Z,51.05
2018-02-17T11:56:09.428Z,50.36
2018-02-17T11:58:39.026Z,50.38
2018-02-17T12:01:08.415Z,55.31
2018-02-17T12:03:37.950Z,53.08
2018-02-17T12:06:07.164Z,53.58
2018-02-17T12:08:36.334Z,53.48
2018-02-17T12:11:05.693Z,52.32
2018-02-17T12:13:34.983Z,52.15
2018-02-17T12:16:04.318Z,56.17
2018-02-17T12:18:33.556Z,55.69
2018-02-17T12:21:02.837Z,57.50
2018-02-17T12:23:32.376Z,57.43
2018-02-17T12:26:01.791Z,58.05
2018-02-17T12:28:30.971Z,60.76
2018-02-17T12:31:00.640Z,59.68
2018-02-17T12:33:29.882Z,58.73
2018-02-17T12:35:59.071Z,62.47
2018-02-17T12:38:28.239Z,65.16
2018-02-17T12:40:57.715Z,65.39
2018-02-17T12:43:27.087Z,64.04
2018-02-17T12:45:56.063Z,64.50
2018-02-17T12:48:25.261Z,65.03
2018-02-17T12:50:54.328Z,63.60
2018-02-17T12:53:23.682Z,60.74
2018-02-17T12:55:52.767Z,62.89
2018-02-17T12:58:22.097Z,64.42
2018-02-17T13:00:51.422Z,64.27
2018-02-17T13:03:20.332Z,64.07
2018-02-17T13:05:49.620Z,61.28
2018-02-17T13:08:19.055Z,63.07
2018-02-17T13:10:48.746Z,60.12
2018-02-17T13:13:18.063Z,59.84
2018-02-17T13:15:46.945Z,61.02
2018-02-17T13:18:16.244Z,62.69
2018-02-17T13:20:45.314Z,61.02
2018-02-17T13:23:14.734Z,62.31
2018-02-17T13:25:44.235Z,62.73
2018-02-17T13:28:25.107Z,62.18
2018-02-17T13:30:54.096Z,60.46
2018-02-17T13:33:23.332Z,60.62
2018-02-17T13:35:52.554Z,61.33
2018-02-17T13:38:21.565Z,62.44
2018-02-17T13:40:51.206Z,63.68
2018-02-17T13:43:20.375Z,60.38
2018-02-17T13:45:49.537Z,59.91
2018-02-17T13:48:18.774Z,61.25
2018-02-17T13:50:48.466Z,59.50
2018-02-17T13:53:17.890Z,59.15
2018-02-17T13:55:47.155Z,58.87
2018-02-17T13:58:16.618Z,59.80
2018-02-17T14:00:46.059Z,61.89
2018-02-17T14:03:15.734Z,60.09
2018-02-17T14:05:45.231Z,59.64
2018-02-17T14:08:14.365Z,61.19
2018-02-17T14:10:43.731Z,62.63
2018-02-17T14:13:13.069Z,61.51
2018-02-17T14:15:42.271Z,63.48
2018-02-17T14:18:11.574Z,64.95
2018-02-17T14:20:40.984Z,64.63
2018-02-17T14:23:10.204Z,63.77
2018-02-17T14:25:39.652Z,65.26
2018-02-17T14:28:09.109Z,63.61
2018-02-17T14:30:38.552Z,63.79
2018-02-17T14:33:07.758Z,63.67
2018-02-17T14:35:37.062Z,64.41
2018-02-17T14:38:06.352Z,64.67
2018-02-17T14:40:35.386Z,62.63
2018-02-17T14:43:04.711Z,63.10
2018-02-17T14:45:34.248Z,63.80
2018-02-17T14:48:03.322Z,64.70
2018-02-17T14:50:32.862Z,65.44
2018-02-17T14:53:02.503Z,64.11
2018-02-17T14:55:31.975Z,63.51
2018-02-17T14:58:01.358Z,64.70
2018-02-17T15:00:30.783Z,63.84
2018-02-17T15:03:00.014Z,61.99
2018-02-17T15:05:29.512Z,64.62
2018-02-17T15:07:58.687Z,62.48
2018-02-17T15:10:27.653Z,63.91
2018-02-17T15:12:56.855Z,65.31
2018-02-17T15:15:25.886Z,67.19
2018-02-17T15:17:55.098Z,65.56
2018-02-17T15:20:24.575Z,65.80
2018-02-17T15:22:53.963Z,67.12
2018-02-17T15:25:23.182Z,66.16
2018-02-17T15:27:52.449Z,66.43
2018-02-17T15:30:21.772Z,68.13
2018-02-17T15:32:50.795Z,67.15
2018-02-17T15:35:19.925Z,68.11
2018-02-17T15:37:48.895Z,67.49
2018-02-17T15:40:18.103Z,66.57
2018-02-17T15:42:47.580Z,71.34
2018-02-17T15:45:16.839Z,67.81
2018-02-17T15:47:46.370Z,68.35
2018-02-17T15:50:15.310Z,69.10
2018-02-17T15:52:44.259Z,69.36
2018-02-17T15:55:13.439Z,70.51
2018-02-17T15:57:42.741Z,70.78
2018-02-17T16:00:11.973Z,69.67
2018-02-17T16:02:41.599Z,69.77
2018-02-17T16:05:10.965Z,70.30
2018-02-17T16:07:40.035Z,70.11
2018-02-17T16:10:09.431Z,70.31
2018-02-17T16:12:38.495Z,70.27
2018-02-17T16:15:07.921Z,70.84
2018-02-17T16:17:37.599Z,70.77
2018-02-17T16:20:07.168Z,71.20
2018-02-17T16:22:36.668Z,72.79
2018-02-17T16:25:06.115Z,71.52
2018-02-17T16:27:35.436Z,72.84
2018-02-17T16:30:04.534Z,72.91
2018-02-17T16:32:33.738Z,73.54
2018-02-17T16:35:02.743Z,73.58
2018-02-17T16:37:31.735Z,72.84
2018-02-17T16:40:00.795Z,73.53
2018-02-17T16:42:29.988Z,73.86
2018-02-17T16:44:59.459Z,74.59
2018-02-17T16:47:28.715Z,74.77
2018-02-17T16:49:57.698Z,75.05
2018-02-17T16:52:26.742Z,76.24
2018-02-17T16:54:55.899Z,75.22
2018-02-17T16:57:24.964Z,76.27
2018-02-17T16:59:54.118Z,75.85
2018-02-17T17:02:23.305Z,75.64
2018-02-17T17:04:52.746Z,75.42
2018-02-17T17:07:21.830Z,74.62
2018-02-17T17:09:50.744Z,75.68
2018-02-17T17:12:20.135Z,76.05
2018-02-17T17:14:49.385Z,76.19
2018-02-17T17:17:18.593Z,75.38
2018-02-17T17:19:47.593Z,75.89
2018-02-17T17:22:16.486Z,76.10
2018-02-17T17:24:45.724Z,75.89
2018-02-17T17:27:14.711Z,76.22
2018-02-17T17:29:43.776Z,76.71
2018-02-17T17:32:12.896Z,76.36
2018-02-17T17:34:41.921Z,76.47
2018-02-17T17:37:11.242Z,77.14
2018-02-17T17:39:40.260Z,77.00
2018-02-17T17:42:10.133Z,76.73
2018-02-17T17:44:39.195Z,76.58
2018-02-17T17:47:08.406Z,76.28
2018-02-17T17:49:37.341Z,76.36
2018-02-17T17:52:06.295Z,76.54
2018-02-17T17:54:35.177Z,76.91
2018-02-17T17:57:04.540Z,77.28
2018-02-17T17:59:33.403Z,76.33
2018-02-17T18:02:02.282Z,77.01
2018-02-17T18:04:31.710Z,76.44
2018-02-17T18:07:00.844Z,76.28
2018-02-17T18:09:29.882Z,76.57
2018-02-17T18:11:59.064Z,77.41
2018-02-17T18:14:28.525Z,77.97
2018-02-17T18:16:57.558Z,78.36
2018-02-17T18:19:26.706Z,79.08
2018-02-17T18:21:55.921Z,79.12
2018-02-17T18:24:24.879Z,79.07
2018-02-17T18:26:53.973Z,79.24
2018-02-17T18:29:23.021Z,79.07
2018-02-17T18:31:52.423Z,79.07
2018-02-17T18:34:21.478Z,79.61
2018-02-17T18:36:50.470Z,79.64
2018-02-17T18:39:19.591Z,79.72
2018-02-17T18:41:48.829Z,79.97
2018-02-17T18:44:17.897Z,79.70
2018-02-17T18:46:47.354Z,79.98
2018-02-17T18:49:16.410Z,80.30
2018-02-17T18:51:45.566Z,80.41
2018-02-17T18:54:14.558Z,80.79
2018-02-17T18:56:43.680Z,81.05
2018-02-17T18:59:12.823Z,81.12
2018-02-17T19:01:42.132Z,81.43
2018-02-17T19:04:11.466Z,81.65
2018-02-17T19:06:40.378Z,81.90
2018-02-17T19:09:10.019Z,81.67
2018-02-17T19:11:39.301Z,82.13
2018-02-17T19:14:08.441Z,82.05
2018-02-17T19:16:37.679Z,82.33
2018-02-17T19:19:06.559Z,82.29
2018-02-17T19:21:35.478Z,82.91
2018-02-17T19:24:04.738Z,82.52
2018-02-17T19:26:33.855Z,82.89
2018-02-17T19:29:03.125Z,82.79
2018-02-17T19:31:32.426Z,83.03
2018-02-17T19:34:01.742Z,83.23
2018-02-17T19:36:30.833Z,83.48
2018-02-17T19:38:59.697Z,83.37
2018-02-17T19:41:29.007Z,83.40
2018-02-17T19:43:58.006Z,83.48
2018-02-17T19:46:27.195Z,83.49
2018-02-17T19:48:56.193Z,83.83
2018-02-17T19:51:25.330Z,83.64
2018-02-17T19:53:54.354Z,84.11
2018-02-17T19:56:23.551Z,84.13
2018-02-17T19:58:52.790Z,83.72
2018-02-17T20:01:22.433Z,83.84
2018-02-17T20:03:51.607Z,84.01
2018-02-17T20:06:21.062Z,84.31
2018-02-17T20:08:50.335Z,84.26
2018-02-17T20:11:19.535Z,84.48
2018-02-17T20:13:48.796Z,84.67
2018-02-17T20:16:18.022Z,84.96
2018-02-17T20:18:47.335Z,85.12
2018-02-17T20:21:16.344Z,84.73
2018-02-17T20:23:45.448Z,84.63
2018-02-17T20:26:14.647Z,83.55
2018-02-17T20:28:44.032Z,84.32
2018-02-17T20:31:13.380Z,84.39
2018-02-17T20:33:42.599Z,84.80
2018-02-17T20:36:12.030Z,85.06
2018-02-17T20:38:41.054Z,85.73
2018-02-17T20:41:10.234Z,85.45
2018-02-17T20:43:39.246Z,85.21
2018-02-17T20:46:08.400Z,85.79
2018-02-17T20:48:37.665Z,85.34
2018-02-17T20:51:07.031Z,85.68
2018-02-17T20:53:35.899Z,85.47
2018-02-17T20:56:04.769Z,86.25
2018-02-17T20:58:34.149Z,86.99
2018-02-17T21:01:03.462Z,86.90
2018-02-17T21:03:32.619Z,87.04
2018-02-17T21:06:02.522Z,87.14
2018-02-17T21:08:31.638Z,88.00
2018-02-17T21:11:00.913Z,86.33
2018-02-17T21:13:29.854Z,87.20
2018-02-17T21:15:59.003Z,85.76
2018-02-17T21:18:28.022Z,86.00
2018-02-17T21:20:57.228Z,86.00
2018-02-17T21:23:26.322Z,85.96
2018-02-17T21:25:55.383Z,85.50
2018-02-17T21:28:24.365Z,85.53
2018-02-17T21:30:53.392Z,85.56
2018-02-17T21:33:22.515Z,85.52
2018-02-17T21:35:52.023Z,85.04
2018-02-17T21:38:21.479Z,85.01
2018-02-17T21:40:50.768Z,85.10
2018-02-17T21:43:19.819Z,84.98
2018-02-17T21:45:48.955Z,84.66
2018-02-17T21:48:18.027Z,84.73
2018-02-17T21:50:47.398Z,85.22
2018-02-17T21:53:16.495Z,85.19
2018-02-17T21:55:45.354Z,84.59
2018-02-17T21:58:14.459Z,84.72
2018-02-17T22:00:43.518Z,85.21
2018-02-17T22:03:12.582Z,85.73
2018-02-17T22:05:41.779Z,85.57
2018-02-17T22:08:10.782Z,84.47
2018-02-17T22:10:39.758Z,84.86
2018-02-17T22:13:08.630Z,85.48
2018-02-17T22:15:37.754Z,86.14
2018-02-17T22:18:06.982Z,86.72
2018-02-17T22:20:35.838Z,87.98
2018-02-17T22:23:04.982Z,90.21
2018-02-17T22:25:34.183Z,88.27
2018-02-17T22:28:03.601Z,89.48
2018-02-17T22:30:32.470Z,90.17
2018-02-17T22:33:01.395Z,90.73
2018-02-17T22:35:30.464Z,91.07
2018-02-17T22:37:59.671Z,90.67
2018-02-17T22:40:28.875Z,90.52
2018-02-17T22:42:57.932Z,90.55
2018-02-17T22:45:27.252Z,90.91
2018-02-17T22:47:56.499Z,90.56
2018-02-17T22:50:25.771Z,90.65
2018-02-17T22:52:55.171Z,90.94
2018-02-17T22:55:24.299Z,90.53
2018-02-17T22:57:53.494Z,90.91
2018-02-17T23:00:31.261Z,90.62
2018-02-17T23:03:00.336Z,90.97
2018-02-17T23:05:29.719Z,90.82
2018-02-17T23:07:59.360Z,90.77
2018-02-17T23:10:28.637Z,91.02
2018-02-17T23:12:57.878Z,90.86
2018-02-17T23:15:27.462Z,90.76
2018-02-17T23:17:56.985Z,90.99
2018-02-17T23:20:26.286Z,90.89
2018-02-17T23:22:55.704Z,90.57
2018-02-17T23:25:24.986Z,91.04
2018-02-17T23:27:54.594Z,91.18
2018-02-17T23:30:23.558Z,90.77
2018-02-17T23:32:52.539Z,90.44
2018-02-17T23:35:21.497Z,90.84
2018-02-17T23:37:51.124Z,90.65
2018-02-17T23:40:20.513Z,90.78
2018-02-17T23:42:49.746Z,90.80
2018-02-17T23:45:18.618Z,90.93
2018-02-17T23:47:48.002Z,91.41
2018-02-17T23:50:17.082Z,91.29
2018-02-17T23:52:46.098Z,91.33
2018-02-17T23:55:15.573Z,91.06
2018-02-17T23:57:44.614Z,90.98
